Time;durP1;ratioP1;P1;durP2;ratioP2;P2;SDS_P1;SDS_P2;PMS_P1;PMS_P2;Temp;Humidity;BMP_temperature;BMP_pressure;BME280_temperature;BME280_humidity;BME280_pressure;Samples;Min_cycle;Max_cycle;Signal;HPM_P1;HPM_P2
2021/12/04 00:02:02;;;;;;;3.67;2.53;;;-2.10;99.90;;;;;;6164567;23;20021;-81
2021/12/04 00:04:32;;;;;;;2.33;2.22;;;-2.00;99.90;;;;;;6190313;23;20035;-82
2021/12/04 00:07:01;;;;;;;3.55;2.40;;;-2.00;99.90;;;;;;6186431;23;20021;-81
2021/12/04 00:09:30;;;;;;;3.05;2.13;;;-2.00;99.90;;;;;;6193026;23;20020;-82
2021/12/04 00:12:03;;;;;;;2.65;2.45;;;-2.00;99.90;;;;;;6182473;23;20021;-82
2021/12/04 00:14:33;;;;;;;1.50;1.42;;;-1.90;99.90;;;;;;6188931;23;20027;-82
2021/12/04 00:17:01;;;;;;;6.43;2.67;;;-1.90;99.90;;;;;;6192971;23;20017;-81
2021/12/04 00:19:30;;;;;;;2.60;2.40;;;-1.90;99.90;;;;;;6184991;23;20025;-82
2021/12/04 00:21:58;;;;;;;1.73;1.60;;;-1.90;99.90;;;;;;6190800;23;20064;-82
2021/12/04 00:24:27;;;;;;;10.43;2.22;;;-2.00;99.90;;;;;;6190484;23;20016;-82
2021/12/04 00:26:55;;;;;;;8.95;3.38;;;-1.90;99.90;;;;;;6185736;23;20021;-82
2021/12/04 00:29:23;;;;;;;2.13;1.98;;;-1.90;99.90;;;;;;6193656;23;20009;-82
2021/12/04 00:31:58;;;;;;;3.42;3.05;;;-2.00;99.90;;;;;;6183759;23;20073;-82
2021/12/04 00:34:28;;;;;;;3.63;2.88;;;-2.10;99.90;;;;;;6191183;23;20713;-82
2021/12/04 00:50:30;;;;;;;2.47;2.38;;;-2.30;99.90;;;;;;6189503;23;20017;-81
2021/12/04 00:52:58;;;;;;;4.40;3.08;;;-2.30;99.90;;;;;;6167838;23;20449;-81
2021/12/04 00:55:26;;;;;;;2.78;2.50;;;-2.30;99.90;;;;;;6186254;23;20025;-82
2021/12/04 00:57:54;;;;;;;5.40;1.80;;;-2.30;99.90;;;;;;6193325;23;20017;-82
2021/12/04 01:00:23;;;;;;;2.20;1.90;;;-2.30;99.90;;;;;;6168058;23;20017;-82
2021/12/04 01:02:52;;;;;;;3.75;2.67;;;-2.20;99.90;;;;;;6189201;23;20361;-81
2021/12/04 01:05:19;;;;;;;3.10;2.53;;;-2.20;99.90;;;;;;6187994;23;20024;-82
2021/12/04 01:07:47;;;;;;;2.38;2.20;;;-2.20;99.90;;;;;;6185644;23;20020;-81
2021/12/04 01:10:15;;;;;;;3.30;2.80;;;-2.20;99.90;;;;;;6190505;23;20036;-81
2021/12/04 01:12:43;;;;;;;2.60;2.40;;;-2.20;99.90;;;;;;6194555;23;20009;-81
2021/12/04 01:15:11;;;;;;;2.03;1.92;;;-2.10;99.90;;;;;;6187781;23;20029;-82
2021/12/04 01:17:39;;;;;;;2.50;2.30;;;-2.10;99.90;;;;;;6167832;23;20009;-82
2021/12/04 01:20:11;;;;;;;2.83;2.63;;;-2.10;99.90;;;;;;6182965;23;20028;-82
2021/12/04 01:22:39;;;;;;;2.35;2.25;;;-2.10;99.90;;;;;;6189512;23;20013;-81
2021/12/04 01:25:07;;;;;;;3.15;2.33;;;-2.10;99.90;;;;;;6193460;23;20021;-81
2021/12/04 01:27:37;;;;;;;2.42;2.25;;;-2.10;99.90;;;;;;6186229;23;20025;-81
2021/12/04 01:30:06;;;;;;;2.58;2.38;;;-2.20;99.90;;;;;;6132356;23;20036;-81
2021/12/04 01:32:34;;;;;;;2.63;2.25;;;-2.20;99.90;;;;;;6194258;23;20028;-82
2021/12/04 01:35:01;;;;;;;3.00;2.58;;;-2.20;99.90;;;;;;6187954;23;20393;-82
2021/12/04 01:37:29;;;;;;;1.95;1.83;;;-2.20;99.90;;;;;;6168124;23;20013;-82
2021/12/04 01:39:57;;;;;;;3.67;3.17;;;-2.10;99.90;;;;;;6182859;23;20021;-81
2021/12/04 01:42:24;;;;;;;1.95;1.80;;;-2.10;99.90;;;;;;6190493;23;20336;-82
2021/12/04 01:44:52;;;;;;;1.67;1.67;;;-2.10;99.90;;;;;;6143170;23;20010;-82
2021/12/04 01:47:21;;;;;;;2.28;2.08;;;-2.00;99.90;;;;;;6160726;23;20025;-82
2021/12/04 01:49:54;;;;;;;3.45;2.42;;;-1.90;99.90;;;;;;6133284;23;20020;-82
2021/12/04 01:52:22;;;;;;;2.78;2.42;;;-1.90;99.90;;;;;;6183899;23;20441;-82
2021/12/04 01:54:54;;;;;;;1.90;1.80;;;-1.80;99.90;;;;;;6187775;23;20078;-82
2021/12/04 01:57:23;;;;;;;2.95;1.73;;;-1.80;99.90;;;;;;6193505;23;20344;-82
2021/12/04 01:59:51;;;;;;;1.65;1.58;;;-1.70;99.90;;;;;;6184023;23;20032;-82
2021/12/04 02:02:20;;;;;;;3.22;2.92;;;-1.60;99.90;;;;;;6191002;23;20029;-82
2021/12/04 02:04:48;;;;;;;2.45;2.35;;;-1.60;99.90;;;;;;6164089;23;20036;-82
2021/12/04 02:07:19;;;;;;;2.15;2.05;;;-1.50;99.90;;;;;;6187441;23;20032;-82
2021/12/04 02:09:46;;;;;;;1.95;1.75;;;-1.50;99.90;;;;;;6192347;23;20019;-81
2021/12/04 02:12:14;;;;;;;2.22;1.98;;;-1.40;99.90;;;;;;6193478;23;20328;-82
2021/12/04 02:14:42;;;;;;;1.88;1.75;;;-1.40;99.90;;;;;;6163190;23;20460;-82
2021/12/04 02:17:10;;;;;;;1.70;1.60;;;-1.40;99.90;;;;;;6194127;23;20017;-82
2021/12/04 02:19:38;;;;;;;3.47;2.78;;;-1.40;99.90;;;;;;6185361;23;20017;-82
2021/12/04 02:22:05;;;;;;;3.22;2.95;;;-1.40;99.90;;;;;;6189742;23;20448;-82
2021/12/04 02:24:54;;;;;;;2.78;2.10;;;-1.40;99.90;;;;;;6186008;23;20451;-82
2021/12/04 02:27:52;;;;;;;2.40;2.20;;;-1.50;99.90;;;;;;6160071;23;20028;-82
2021/12/04 02:30:55;;;;;;;2.30;2.10;;;-1.50;99.90;;;;;;6188608;23;20035;-82
2021/12/04 02:33:53;;;;;;;2.05;1.95;;;-1.40;99.90;;;;;;6192857;23;20024;-82
2021/12/04 02:36:21;;;;;;;2.03;1.83;;;-1.40;99.90;;;;;;6193356;23;20040;-82
2021/12/04 02:38:51;;;;;;;2.03;1.92;;;-1.40;99.90;;;;;;6188599;23;20021;-82
2021/12/04 02:41:20;;;;;;;3.10;2.33;;;-1.40;99.90;;;;;;6165619;23;20455;-82
2021/12/04 02:43:49;;;;;;;3.25;3.05;;;-1.40;99.90;;;;;;6131922;23;20028;-82
2021/12/04 02:46:17;;;;;;;2.10;2.00;;;-1.50;99.90;;;;;;6140088;23;20017;-82
2021/12/04 02:48:47;;;;;;;2.40;2.20;;;-1.50;99.90;;;;;;6193878;23;20032;-82
2021/12/04 02:51:19;;;;;;;2.10;1.90;;;-1.50;99.90;;;;;;6135437;23;20033;-82
2021/12/04 02:53:46;;;;;;;2.70;2.10;;;-1.60;99.90;;;;;;6192710;23;20013;-82
2021/12/04 02:56:14;;;;;;;5.72;2.35;;;-1.60;99.90;;;;;;6166566;23;20040;-82
2021/12/04 02:58:49;;;;;;;4.03;2.30;;;-1.60;99.90;;;;;;6188433;23;20021;-82
2021/12/04 03:01:17;;;;;;;2.22;2.13;;;-1.50;99.90;;;;;;6193374;23;20016;-82
2021/12/04 03:03:45;;;;;;;2.88;2.67;;;-1.50;99.90;;;;;;6184838;23;20017;-83
2021/12/04 03:06:13;;;;;;;2.83;2.60;;;-1.50;99.90;;;;;;6156289;23;20029;-82
2021/12/04 03:08:41;;;;;;;3.00;2.80;;;-1.50;99.90;;;;;;6157082;23;20352;-82
2021/12/04 03:11:09;;;;;;;5.95;3.00;;;-1.60;99.90;;;;;;6185290;23;20040;-82
2021/12/04 03:13:36;;;;;;;4.47;3.85;;;-1.50;99.90;;;;;;6193827;23;20013;-82
2021/12/04 03:16:04;;;;;;;2.72;1.75;;;-1.50;99.90;;;;;;6181094;23;20036;-82
2021/12/04 03:18:32;;;;;;;2.33;2.13;;;-1.50;99.90;;;;;;6188906;23;20020;-82
2021/12/04 03:21:03;;;;;;;3.53;3.08;;;-1.50;99.90;;;;;;6190974;23;20310;-82
2021/12/04 03:23:39;;;;;;;2.07;1.93;;;-1.50;99.90;;;;;;6185310;23;20475;-82
2021/12/04 03:26:09;;;;;;;2.72;2.47;;;-1.40;99.90;;;;;;6163070;23;20256;-82
2021/12/04 03:28:37;;;;;;;2.50;2.30;;;-1.40;99.90;;;;;;6193249;23;20066;-82
2021/12/04 03:31:12;;;;;;;2.25;2.15;;;-1.40;99.90;;;;;;6186692;23;20033;-82
2021/12/04 03:41:59;;;;;;;2.35;2.25;;;-1.30;99.90;;;;;;6130429;23;20017;-82
2021/12/04 03:44:27;;;;;;;3.15;2.08;;;-1.40;99.90;;;;;;6167049;23;20013;-82
2021/12/04 03:46:55;;;;;;;2.35;2.20;;;-1.40;99.90;;;;;;6187738;23;20468;-82
2021/12/04 03:49:23;;;;;;;2.80;2.65;;;-1.40;99.90;;;;;;6193459;23;20020;-82
2021/12/04 03:51:50;;;;;;;3.22;2.38;;;-1.30;99.90;;;;;;6183149;23;20021;-83
2021/12/04 03:54:19;;;;;;;2.97;1.70;;;-1.30;99.90;;;;;;6164135;23;20017;-82
2021/12/04 03:56:47;;;;;;;3.22;2.58;;;-1.30;99.90;;;;;;6166283;23;20009;-82
2021/12/04 03:59:15;;;;;;;2.53;2.28;;;-1.30;99.90;;;;;;6131778;23;20360;-82
2021/12/04 04:01:43;;;;;;;1.70;1.60;;;-1.20;99.90;;;;;;6131498;23;20017;-82
2021/12/04 04:04:11;;;;;;;2.08;1.98;;;-1.20;99.90;;;;;;6155564;23;20036;-82
2021/12/04 04:06:38;;;;;;;2.13;1.92;;;-1.20;99.90;;;;;;6188243;23;20032;-82
2021/12/04 04:09:06;;;;;;;2.17;2.08;;;-1.20;99.90;;;;;;6192912;23;20020;-82
2021/12/04 04:11:36;;;;;;;2.30;2.10;;;-1.20;99.90;;;;;;6178869;23;20021;-82
2021/12/04 04:14:04;;;;;;;1.90;1.80;;;-1.20;99.90;;;;;;6189525;23;20013;-82
2021/12/04 04:16:36;;;;;;;1.88;1.77;;;-1.20;99.90;;;;;;6156282;23;20028;-82
2021/12/04 04:19:04;;;;;;;2.53;2.33;;;-1.20;99.90;;;;;;6107138;23;20021;-82
2021/12/04 04:21:35;;;;;;;2.05;1.95;;;-1.20;99.90;;;;;;6165922;23;20020;-82
2021/12/04 04:24:03;;;;;;;2.60;1.90;;;-1.20;99.90;;;;;;6131515;23;20044;-82
2021/12/04 04:26:31;;;;;;;3.05;1.63;;;-1.20;99.90;;;;;;6155518;23;20021;-82
2021/12/04 04:28:58;;;;;;;2.88;2.22;;;-1.30;99.90;;;;;;6142207;23;20507;-82
2021/12/04 04:31:27;;;;;;;2.90;1.80;;;-1.30;99.90;;;;;;6184654;23;20021;-82
2021/12/04 04:34:01;;;;;;;3.45;2.13;;;-1.30;99.90;;;;;;6191471;23;20020;-82
2021/12/04 05:01:25;;;;;;;1.98;1.88;;;-1.30;99.90;;;;;;6192562;23;20013;-82
2021/12/04 05:12:22;;;;;;;3.53;2.20;;;-1.30;99.90;;;;;;6151368;23;20025;-83
2021/12/04 05:14:59;;;;;;;1.80;1.70;;;-1.30;99.90;;;;;;6152952;23;20018;-84
2021/12/04 05:17:42;;;;;;;3.70;3.40;;;-1.30;99.90;;;;;;6162884;23;20025;-83
2021/12/04 05:20:14;;;;;;;2.28;2.08;;;-1.30;99.90;;;;;;6152599;23;20022;-84
2021/12/04 05:22:41;;;;;;;7.22;2.47;;;-1.30;99.90;;;;;;6160043;23;20025;-83
2021/12/04 05:25:10;;;;;;;2.85;2.67;;;-1.20;99.90;;;;;;6163673;23;20591;-84
2021/12/04 05:27:37;;;;;;;1.10;1.10;;;-1.10;99.90;;;;;;6153923;23;20612;-83
2021/12/04 05:30:06;;;;;;;3.53;3.03;;;-1.20;99.90;;;;;;6114217;23;20022;-83
2021/12/04 05:32:34;;;;;;;1.63;1.63;;;-1.20;99.90;;;;;;6128949;23;20448;-83
2021/12/04 05:35:02;;;;;;;2.10;1.88;;;-1.20;99.90;;;;;;6132546;23;20365;-84
2021/12/04 05:37:30;;;;;;;2.80;1.88;;;-1.20;99.90;;;;;;6164534;23;20014;-83
2021/12/04 05:39:58;;;;;;;2.63;2.42;;;-1.20;99.90;;;;;;6127924;23;20025;-82
2021/12/04 05:42:25;;;;;;;1.77;1.67;;;-1.20;99.90;;;;;;6159354;23;20017;-82
2021/12/04 05:44:53;;;;;;;1.95;1.80;;;-1.10;99.90;;;;;;6164572;23;20337;-83
2021/12/04 05:47:30;;;;;;;2.63;2.05;;;-1.10;99.90;;;;;;6156076;23;20021;-83
2021/12/04 05:50:12;;;;;;;2.50;2.17;;;-1.10;99.90;;;;;;6160960;23;20513;-82
2021/12/04 05:55:26;;;;;;;2.78;2.58;;;-1.00;99.90;;;;;;6126817;23;20021;-83
2021/12/04 05:57:54;;;;;;;1.73;1.63;;;-1.00;99.90;;;;;;6163059;23;20443;-82
2021/12/04 06:00:24;;;;;;;2.97;2.75;;;-1.00;99.90;;;;;;6127782;23;20021;-82
2021/12/04 06:02:52;;;;;;;2.63;1.45;;;-1.00;99.90;;;;;;6132803;23;20025;-82
2021/12/04 06:05:20;;;;;;;3.03;2.80;;;-1.00;99.90;;;;;;6160345;23;20013;-83
2021/12/04 06:07:48;;;;;;;2.53;2.33;;;-1.00;99.90;;;;;;6184647;23;20018;-82
2021/12/04 06:10:16;;;;;;;1.63;1.52;;;-1.00;99.90;;;;;;6190304;23;20468;-82
2021/12/04 06:12:44;;;;;;;2.42;2.22;;;-1.00;99.90;;;;;;6193561;23;20009;-82
2021/12/04 06:15:11;;;;;;;1.20;1.15;;;-0.90;99.90;;;;;;6161478;23;20459;-82
2021/12/04 06:17:40;;;;;;;3.10;2.50;;;-0.90;99.90;;;;;;6132519;23;20017;-82
2021/12/04 06:22:54;;;;;;;2.30;2.20;;;-0.90;99.90;;;;;;6188365;23;20024;-82
2021/12/04 06:25:27;;;;;;;1.80;1.70;;;-0.80;99.90;;;;;;6166397;23;20372;-82
2021/12/04 06:27:55;;;;;;;1.85;1.75;;;-0.80;99.90;;;;;;6106891;23;20029;-81
2021/12/04 06:30:25;;;;;;;1.92;1.77;;;-0.80;99.90;;;;;;6138419;23;20468;-85
2021/12/04 06:32:54;;;;;;;3.85;3.50;;;-0.70;99.90;;;;;;6166754;23;20009;-81
2021/12/04 06:35:23;;;;;;;3.05;2.13;;;-0.70;99.90;;;;;;6107816;23;20029;-81
2021/12/04 06:37:52;;;;;;;1.42;1.42;;;-0.70;99.90;;;;;;6166691;23;20013;-81
2021/12/04 06:40:25;;;;;;;2.83;2.63;;;-0.60;99.90;;;;;;6166018;23;20047;-81
2021/12/04 06:42:55;;;;;;;2.25;2.05;;;-0.60;99.90;;;;;;6132223;23;20017;-80
2021/12/04 06:45:25;;;;;;;1.45;1.40;;;-0.60;99.90;;;;;;6132740;23;20032;-81
2021/12/04 06:47:57;;;;;;;3.45;1.70;;;-0.60;99.90;;;;;;6182860;23;20029;-81
2021/12/04 06:50:38;;;;;;;1.50;1.45;;;-0.60;99.90;;;;;;6189591;23;20036;-81
2021/12/04 06:53:27;;;;;;;2.88;2.22;;;-0.50;99.90;;;;;;6166641;23;20484;-81
2021/12/04 06:55:58;;;;;;;1.50;1.40;;;-0.50;99.90;;;;;;6156324;23;20067;-81
2021/12/04 06:58:27;;;;;;;2.43;2.23;;;-0.50;99.90;;;;;;6189461;23;20356;-81
2021/12/04 07:00:56;;;;;;;11.20;2.15;;;-0.40;99.90;;;;;;6166215;23;20341;-81
2021/12/04 07:03:25;;;;;;;1.58;1.48;;;-0.50;99.90;;;;;;6185689;23;20344;-81
2021/12/04 07:05:52;;;;;;;1.70;1.60;;;-0.40;99.90;;;;;;6158180;23;20039;-81
2021/12/04 07:08:20;;;;;;;1.63;1.52;;;-0.50;99.90;;;;;;6167066;23;20440;-81
2021/12/04 07:10:48;;;;;;;1.77;1.67;;;-0.40;99.90;;;;;;6187544;23;20036;-81
2021/12/04 07:13:17;;;;;;;2.72;1.77;;;-0.50;99.90;;;;;;6193162;23;20036;-81
2021/12/04 07:15:46;;;;;;;2.00;1.52;;;-0.40;99.90;;;;;;6184582;23;20036;-81
2021/12/04 07:18:14;;;;;;;1.85;1.70;;;-0.40;99.90;;;;;;6190145;23;20036;-82
2021/12/04 07:20:42;;;;;;;2.58;2.28;;;-0.30;99.90;;;;;;6192996;23;20028;-81
2021/12/04 07:23:10;;;;;;;1.63;1.52;;;-0.30;99.90;;;;;;6186169;23;20036;-82
2021/12/04 07:25:37;;;;;;;2.70;1.95;;;-0.30;99.90;;;;;;6192413;23;20480;-82
2021/12/04 07:28:05;;;;;;;3.08;2.78;;;-0.30;99.90;;;;;;6156988;23;20029;-83
2021/12/04 07:30:33;;;;;;;1.33;1.33;;;-0.30;99.90;;;;;;6162977;23;20021;-82
2021/12/04 07:33:00;;;;;;;2.33;2.10;;;-0.30;99.90;;;;;;6193423;23;20016;-82
2021/12/04 07:35:28;;;;;;;1.70;1.60;;;-0.30;99.90;;;;;;6131600;23;20024;-83
2021/12/04 07:37:56;;;;;;;2.17;1.20;;;-0.30;99.90;;;;;;6131905;23;20029;-83
2021/12/04 07:40:24;;;;;;;2.45;2.28;;;-0.30;99.90;;;;;;6166040;23;20013;-82
2021/12/04 07:42:52;;;;;;;1.85;1.75;;;-0.30;99.90;;;;;;6161578;23;20021;-83
2021/12/04 07:45:20;;;;;;;2.47;2.28;;;-0.30;99.90;;;;;;6167108;23;20012;-83
2021/12/04 07:47:47;;;;;;;4.05;3.75;;;-0.30;99.90;;;;;;6184528;23;20025;-82
2021/12/04 07:50:20;;;;;;;7.05;4.65;;;-0.20;99.90;;;;;;6190195;23;20336;-83
2021/12/04 07:52:49;;;;;;;5.57;3.08;;;-0.20;99.90;;;;;;6166634;23;20013;-83
2021/12/04 07:55:17;;;;;;;3.35;3.15;;;-0.20;99.90;;;;;;6159459;23;20029;-83
2021/12/04 07:57:45;;;;;;;1.38;1.38;;;-0.20;99.90;;;;;;6131136;23;20345;-85
2021/12/04 08:00:15;;;;;;;2.33;2.10;;;-0.20;99.90;;;;;;6107718;23;20021;-82
2021/12/04 08:02:43;;;;;;;2.45;2.00;;;-0.20;99.90;;;;;;6107636;23;20028;-82
2021/12/04 08:05:12;;;;;;;2.80;2.38;;;-0.20;99.90;;;;;;6161580;23;20040;-82
2021/12/04 08:07:39;;;;;;;2.40;2.20;;;-0.10;99.90;;;;;;6132876;23;20507;-82
2021/12/04 08:10:11;;;;;;;2.80;1.88;;;-0.20;99.90;;;;;;6164205;23;20048;-82
2021/12/04 08:12:39;;;;;;;3.80;1.55;;;-0.20;99.90;;;;;;6193010;23;20017;-82
2021/12/04 08:15:09;;;;;;;4.85;2.80;;;-0.20;99.90;;;;;;6131826;23;20029;-82
2021/12/04 08:17:38;;;;;;;3.00;2.80;;;-0.20;99.90;;;;;;6156162;23;20451;-82
2021/12/04 08:20:06;;;;;;;5.28;2.50;;;-0.20;99.90;;;;;;6155531;23;20029;-81
2021/12/04 08:22:34;;;;;;;6.40;5.82;;;-0.10;99.90;;;;;;6188098;23;20025;-81
2021/12/04 08:25:03;;;;;;;18.00;14.52;;;-0.10;99.90;;;;;;6165674;23;20013;-82
2021/12/04 08:27:31;;;;;;;9.95;8.95;;;-0.10;99.90;;;;;;6107389;23;20029;-81
2021/12/04 08:29:59;;;;;;;5.43;4.93;;;-0.10;99.90;;;;;;6130057;23;20032;-82
2021/12/04 08:32:27;;;;;;;2.63;2.47;;;-0.10;99.90;;;;;;6166969;23;20024;-81
2021/12/04 08:34:57;;;;;;;2.00;1.88;;;0.00;99.90;;;;;;6130946;23;20036;-81
2021/12/04 08:37:24;;;;;;;2.33;2.15;;;-0.10;99.90;;;;;;6192181;23;20028;-81
2021/12/04 08:39:52;;;;;;;2.78;2.58;;;0.00;99.90;;;;;;6156637;23;20028;-81
2021/12/04 08:42:20;;;;;;;3.22;3.08;;;0.00;99.90;;;;;;6162850;23;20031;-81
2021/12/04 08:44:48;;;;;;;1.92;1.83;;;0.10;99.90;;;;;;6166182;23;20021;-82
2021/12/04 08:47:16;;;;;;;2.65;2.53;;;0.10;99.90;;;;;;6131415;23;20032;-81
2021/12/04 08:49:44;;;;;;;1.98;1.88;;;0.20;99.90;;;;;;6131682;23;20017;-81
2021/12/04 08:52:17;;;;;;;2.78;2.45;;;0.30;99.90;;;;;;6182631;23;20025;-81
2021/12/04 08:54:48;;;;;;;2.50;2.30;;;0.30;99.90;;;;;;6156717;23;20025;-81
2021/12/04 08:57:16;;;;;;;2.72;2.53;;;0.20;99.90;;;;;;6168209;23;20016;-81
2021/12/04 08:59:47;;;;;;;3.00;2.80;;;0.30;99.90;;;;;;6132326;23;20033;-80
2021/12/04 09:02:16;;;;;;;;;;;0.30;99.90;;;;;;6165364;23;20062;-79
2021/12/04 09:04:46;;;;;;;2.53;2.05;;;0.30;99.90;;;;;;6164459;23;19916;-80
2021/12/04 09:07:16;;;;;;;2.15;1.85;;;0.30;99.90;;;;;;6136824;23;20017;-81
2021/12/04 09:09:45;;;;;;;2.60;1.98;;;0.30;99.90;;;;;;6193084;23;20016;-78
2021/12/04 09:12:22;;;;;;;5.50;1.98;;;0.40;99.90;;;;;;6165329;23;20220;-80
2021/12/04 09:14:52;;;;;;;2.50;2.30;;;0.40;99.90;;;;;;6131774;23;20469;-83
2021/12/04 09:17:22;;;;;;;2.65;2.35;;;0.40;99.90;;;;;;6133886;23;20025;-81
2021/12/04 09:19:53;;;;;;;2.53;1.83;;;0.40;99.90;;;;;;6158574;23;20036;-82
2021/12/04 09:22:26;;;;;;;2.95;2.33;;;0.50;99.90;;;;;;6164180;23;20032;-82
2021/12/04 09:25:07;;;;;;;2.10;1.90;;;0.60;99.90;;;;;;6193400;23;20017;-79
2021/12/04 10:18:44;;;;;;;;;;;1.20;99.90;;;;;;6168004;23;20017;-85
2021/12/04 10:33:58;;;;;;;2.17;2.08;;;1.30;99.90;;;;;;6131744;23;20021;-81
2021/12/04 10:36:32;;;;;;;1.88;1.77;;;1.30;99.90;;;;;;6166674;23;20013;-81
2021/12/04 10:39:01;;;;;;;2.22;2.13;;;1.30;99.90;;;;;;6156512;23;20040;-80
2021/12/04 10:41:33;;;;;;;5.10;4.60;;;1.30;99.90;;;;;;6192177;23;20024;-81
2021/12/04 10:44:10;;;;;;;3.53;2.47;;;1.30;99.90;;;;;;6183283;23;20341;-76
2021/12/04 10:46:38;;;;;;;2.08;1.98;;;1.40;99.90;;;;;;6188568;23;20353;-83
2021/12/04 10:49:15;;;;;;;2.67;2.25;;;1.40;99.90;;;;;;6193617;23;20013;-81
2021/12/04 10:51:50;;;;;;;2.33;2.10;;;1.50;99.90;;;;;;6184380;23;20448;-79
2021/12/04 10:54:26;;;;;;;2.05;1.92;;;1.60;99.90;;;;;;6182442;23;20025;-81
2021/12/04 10:59:48;;;;;;;2.38;1.95;;;1.80;99.90;;;;;;6185551;23;20040;-83
2021/12/04 11:02:26;;;;;;;4.13;2.33;;;1.80;99.90;;;;;;6191007;23;20028;-81
2021/12/04 11:05:24;;;;;;;3.20;2.90;;;1.80;99.90;;;;;;6191560;23;20032;-81
2021/12/04 11:18:39;;;;;;;1.92;1.70;;;1.80;99.90;;;;;;6184438;23;20358;-82
2021/12/04 11:36:25;;;;;;;2.55;2.40;;;1.80;99.90;;;;;;6131418;23;20032;-79
2021/12/04 11:39:10;;;;;;;2.70;2.50;;;1.90;99.90;;;;;;6131548;23;20029;-80
2021/12/04 11:44:34;;;;;;;2.60;2.38;;;2.10;99.90;;;;;;6165817;23;20748;-83
2021/12/04 11:47:02;;;;;;;3.13;2.13;;;2.00;99.90;;;;;;6162173;23;20028;-84
2021/12/04 11:49:33;;;;;;;3.33;1.95;;;2.00;99.90;;;;;;6168014;23;20013;-88
2021/12/04 11:52:07;;;;;;;3.47;3.15;;;1.90;99.90;;;;;;6106757;23;20429;-83
2021/12/04 11:55:02;;;;;;;3.13;2.83;;;1.90;99.90;;;;;;6156305;23;20471;-81
2021/12/04 11:57:32;;;;;;;4.18;2.72;;;1.80;99.90;;;;;;6156311;23;20612;-81
2021/12/04 12:00:26;;;;;;;2.50;2.40;;;2.00;99.90;;;;;;6183411;23;20021;-82
2021/12/04 12:03:11;;;;;;;6.80;2.88;;;1.90;99.90;;;;;;6161249;23;20017;-81
2021/12/04 12:05:45;;;;;;;6.55;2.92;;;2.00;99.90;;;;;;6132350;23;20432;-83
2021/12/04 12:08:33;;;;;;;2.22;2.03;;;1.90;99.90;;;;;;6155815;23;20344;-81
2021/12/04 12:11:04;;;;;;;5.88;2.35;;;1.80;99.90;;;;;;6186090;23;20021;-82
2021/12/04 12:13:34;;;;;;;2.97;2.58;;;1.80;99.90;;;;;;6193020;23;20637;-83
2021/12/04 12:16:08;;;;;;;3.67;2.20;;;1.90;99.90;;;;;;6182774;23;20021;-83
2021/12/04 12:18:56;;;;;;;2.63;2.42;;;1.90;99.90;;;;;;6188774;23;20326;-80
2021/12/04 12:21:32;;;;;;;3.33;2.67;;;2.00;99.90;;;;;;6192180;23;20477;-82
2021/12/04 12:27:16;;;;;;;3.83;3.53;;;2.00;99.90;;;;;;6187204;23;20356;-81
2021/12/04 12:36:07;;;;;;;4.40;4.03;;;2.10;99.90;;;;;;6053796;23;20027;-83
2021/12/04 12:38:35;;;;;;;7.07;3.95;;;2.10;99.90;;;;;;6190014;23;20455;-80
2021/12/04 12:41:10;;;;;;;3.75;3.45;;;2.20;99.90;;;;;;6191398;23;20025;-80
2021/12/04 12:43:47;;;;;;;5.07;3.53;;;2.30;99.90;;;;;;6185877;23;20032;-84
2021/12/04 12:46:15;;;;;;;3.38;3.08;;;2.40;99.90;;;;;;6191429;23;20017;-83
2021/12/04 12:48:45;;;;;;;5.38;3.45;;;2.40;99.90;;;;;;6194751;23;20461;-83
2021/12/04 12:51:14;;;;;;;3.13;2.92;;;2.30;99.90;;;;;;6155896;23;20036;-83
2021/12/04 12:53:46;;;;;;;4.10;3.28;;;2.40;99.90;;;;;;6166318;23;20020;-83
2021/12/04 12:56:16;;;;;;;5.20;4.57;;;2.40;99.90;;;;;;6181700;23;20029;-83
2021/12/04 12:58:50;;;;;;;4.30;3.90;;;2.50;99.90;;;;;;6189363;23;20025;-84
2021/12/04 13:13:29;;;;;;;4.43;3.13;;;2.90;99.90;;;;;;6192828;23;20009;-81
2021/12/04 13:16:05;;;;;;;2.75;2.55;;;2.90;99.90;;;;;;6182700;23;20029;-83
2021/12/04 13:18:58;;;;;;;3.38;2.83;;;2.90;99.90;;;;;;6187646;23;20456;-81
2021/12/04 13:21:56;;;;;;;3.15;2.75;;;2.90;99.90;;;;;;6191653;23;20016;-85
2021/12/04 13:24:36;;;;;;;5.72;4.68;;;2.90;99.90;;;;;;6165165;23;20436;-84
2021/12/04 13:30:03;;;;;;;3.97;3.67;;;2.90;99.90;;;;;;6186863;23;20066;-81
2021/12/04 13:32:44;;;;;;;3.53;3.22;;;2.70;99.90;;;;;;6192486;23;20013;-82
2021/12/04 13:35:20;;;;;;;4.55;4.15;;;2.70;99.90;;;;;;6134931;23;20032;-82
2021/12/04 13:38:02;;;;;;;5.25;4.30;;;2.70;99.90;;;;;;6156365;23;20032;-82
2021/12/04 13:40:35;;;;;;;3.42;3.13;;;2.70;99.90;;;;;;6156624;23;20332;-82
2021/12/04 13:43:35;;;;;;;3.63;3.35;;;2.60;99.90;;;;;;6187735;23;20036;-82
2021/12/04 13:47:04;;;;;;;4.35;3.97;;;2.60;99.90;;;;;;6068552;23;20037;-82
2021/12/04 14:00:44;;;;;;;4.50;4.10;;;2.60;99.90;;;;;;6150433;23;20014;-82
2021/12/04 14:05:03;;;;;;;;;;;;;;;;;;;;;
2021/12/04 14:13:13;;;;;;;7.18;3.08;;;2.60;99.90;;;;;;5952156;24;20036;-82
2021/12/04 14:16:55;;;;;;;;;;;;;;;;;;;;;
2021/12/04 14:19:52;;;;;;;4.30;3.78;;;2.60;99.90;;;;;;5931964;24;20020;-81
2021/12/04 14:22:25;;;;;;;5.35;4.50;;;2.60;99.90;;;;;;5972069;23;20038;-82
2021/12/04 14:25:10;;;;;;;8.50;3.90;;;2.60;99.90;;;;;;6015350;23;20027;-83
2021/12/04 14:28:22;;;;;;;9.75;5.35;;;2.70;99.90;;;;;;6005348;23;20024;-80
2021/12/04 14:31:04;;;;;;;3.88;3.58;;;2.70;99.90;;;;;;6012100;23;20023;-86
2021/12/04 14:33:37;;;;;;;4.07;3.75;;;2.70;99.90;;;;;;6016633;23;20015;-87
2021/12/04 14:36:06;;;;;;;4.13;3.83;;;2.70;99.90;;;;;;6038364;23;20030;-82
2021/12/04 14:38:47;;;;;;;4.10;3.70;;;2.70;99.90;;;;;;6047598;23;20023;-85
2021/12/04 14:41:16;;;;;;;4.50;3.33;;;2.70;99.90;;;;;;6014573;23;20023;-87
2021/12/04 14:43:44;;;;;;;3.08;2.88;;;2.70;99.90;;;;;;6044418;23;20350;-86
2021/12/04 14:46:15;;;;;;;5.50;4.90;;;2.60;99.90;;;;;;6134899;23;20029;-81
2021/12/04 14:48:48;;;;;;;5.50;3.90;;;2.50;99.90;;;;;;6128087;23;20726;-83
2021/12/04 14:51:18;;;;;;;7.13;4.15;;;2.40;99.90;;;;;;6131090;23;20457;-84
2021/12/04 14:54:00;;;;;;;4.10;3.80;;;2.40;99.90;;;;;;6133017;23;20009;-85
2021/12/04 14:56:30;;;;;;;4.05;3.65;;;2.50;99.90;;;;;;6104512;23;20610;-85
2021/12/04 14:58:59;;;;;;;4.90;4.35;;;2.60;99.90;;;;;;6121544;23;20028;-85
2021/12/04 15:01:34;;;;;;;4.10;3.75;;;2.70;99.90;;;;;;6164247;23;20020;-83
2021/12/04 15:04:06;;;;;;;6.43;5.28;;;2.80;99.90;;;;;;6153776;23;20021;-84
2021/12/04 15:06:38;;;;;;;3.40;3.10;;;2.70;99.90;;;;;;6182512;23;20017;-84
2021/12/04 15:09:15;;;;;;;5.50;5.00;;;2.70;99.90;;;;;;6167728;23;20013;-86
2021/12/04 15:11:46;;;;;;;4.68;4.28;;;2.70;99.90;;;;;;6183961;23;20356;-85
2021/12/04 15:14:33;;;;;;;5.82;4.72;;;2.70;99.90;;;;;;6164950;23;20345;-83
2021/12/04 15:17:07;;;;;;;5.50;5.00;;;2.80;99.90;;;;;;6167767;23;20314;-86
2021/12/04 15:19:47;;;;;;;5.43;4.72;;;2.80;99.90;;;;;;6132284;23;20491;-86
2021/12/04 15:22:35;;;;;;;6.93;4.30;;;2.80;99.90;;;;;;6191273;23;20025;-84
2021/12/04 15:25:22;;;;;;;6.32;4.50;;;2.90;99.90;;;;;;6156888;23;20025;-87
2021/12/04 15:27:50;;;;;;;5.38;4.45;;;2.80;99.90;;;;;;6184869;23;20338;-86
2021/12/04 15:30:22;;;;;;;6.90;6.18;;;2.80;99.90;;;;;;6190632;23;20024;-85
2021/12/04 15:32:53;;;;;;;5.88;5.18;;;2.90;99.90;;;;;;6180060;23;20021;-84
2021/12/04 15:35:32;;;;;;;5.75;4.82;;;2.80;99.90;;;;;;6185938;23;20025;-87
2021/12/04 15:38:06;;;;;;;6.47;4.57;;;2.90;99.90;;;;;;6165764;23;20044;-86
2021/12/04 15:54:21;;;;;;;1.38;1.17;;;3.80;99.90;;;;;;6130725;23;20490;-81
2021/12/04 15:57:21;;;;;;;1.00;1.00;;;4.60;99.90;;;;;;6166723;23;20036;-81
2021/12/04 16:00:03;;;;;;;1.67;1.40;;;5.00;99.90;;;;;;6143423;23;20028;-80
2021/12/04 16:02:55;;;;;;;1.80;1.70;;;5.40;99.90;;;;;;6111223;23;20751;-81
2021/12/04 16:05:27;;;;;;;0.82;0.82;;;5.40;99.90;;;;;;6131711;23;20025;-84
2021/12/04 16:08:01;;;;;;;0.65;0.65;;;5.60;99.90;;;;;;6157418;23;20021;-83
2021/12/04 16:14:28;;;;;;;0.70;0.70;;;5.80;99.90;;;;;;6131524;23;20017;-85
2021/12/04 16:17:15;;;;;;;1.45;1.00;;;5.90;99.90;;;;;;6157844;23;20013;-85
2021/12/04 16:19:45;;;;;;;0.70;0.70;;;6.00;99.90;;;;;;6184430;23;20032;-84
2021/12/04 16:22:37;;;;;;;0.93;0.93;;;6.00;99.90;;;;;;6169181;23;20078;-83
2021/12/04 16:25:23;;;;;;;2.05;1.80;;;5.90;99.90;;;;;;6156964;23;20021;-85
2021/12/04 16:33:32;;;;;;;0.95;0.90;;;5.80;99.90;;;;;;6183552;23;20017;-84
2021/12/04 16:36:19;;;;;;;1.77;1.67;;;5.90;99.90;;;;;;6131570;23;20036;-83
2021/12/04 16:39:35;;;;;;;0.88;0.88;;;5.90;99.90;;;;;;6182664;23;20457;-84
2021/12/04 16:42:08;;;;;;;1.08;1.00;;;6.00;99.90;;;;;;6146258;23;20329;-84
2021/12/04 16:44:44;;;;;;;0.88;0.88;;;5.80;99.90;;;;;;6138379;23;20016;-84
2021/12/04 16:47:25;;;;;;;1.02;1.00;;;5.80;99.90;;;;;;6182724;23;20017;-81
2021/12/04 16:50:02;;;;;;;0.80;0.80;;;5.90;99.90;;;;;;6181970;23;20024;-81
2021/12/04 16:58:29;;;;;;;0.95;0.88;;;5.80;99.90;;;;;;6190211;23;20013;-85
2021/12/04 17:01:15;;;;;;;1.75;1.38;;;5.80;99.90;;;;;;6192914;23;20297;-85
2021/12/04 17:04:11;;;;;;;2.78;2.25;;;5.90;99.90;;;;;;6160654;23;20024;-81
2021/12/04 17:07:04;;;;;;;0.80;0.80;;;6.00;99.90;;;;;;6113300;23;20022;-86
2021/12/04 17:09:42;;;;;;;6.57;1.10;;;5.90;99.90;;;;;;6162500;23;20037;-81
2021/12/04 17:12:14;;;;;;;0.80;0.80;;;5.90;99.90;;;;;;6140535;23;20033;-85